Time;durP1;ratioP1;P1;durP2;ratioP2;P2;SDS_P1;SDS_P2;PMS_P1;PMS_P2;Temp;Humidity;BMP_temperature;BMP_pressure;BME280_temperature;BME280_humidity;BME280_pressure;Samples;Min_cycle;Max_cycle;Signal;HPM_P1;HPM_P2
2023/09/28 00:02:45;;;;;;;5.50;5.00;;;;;;;17.97;73.58;95142.34;5095833;28;20571;-85
2023/09/28 00:05:12;;;;;;;10.37;5.10;;;;;;;18.02;73.32;95150.63;5096261;28;21129;-85
2023/09/28 00:07:39;;;;;;;8.63;5.73;;;;;;;18.02;73.62;95141.84;5096321;28;20486;-85
2023/09/28 00:10:09;;;;;;;9.07;5.37;;;;;;;18.03;73.34;95141.66;5096452;28;20446;-85
2023/09/28 00:12:36;;;;;;;12.43;6.27;;;;;;;18.00;73.66;95133.22;5095348;28;20448;-84
2023/09/28 00:15:01;;;;;;;7.43;5.30;;;;;;;17.98;73.67;95135.22;5095761;28;20440;-85
2023/09/28 00:17:28;;;;;;;10.43;5.03;;;;;;;17.97;73.98;95129.06;5095876;28;20456;-85
2023/09/28 00:19:57;;;;;;;10.13;5.50;;;;;;;17.91;74.24;95124.41;5096273;28;20197;-84
2023/09/28 00:22:24;;;;;;;6.50;5.30;;;;;;;17.91;74.37;95130.56;5095426;28;20520;-84
2023/09/28 00:24:51;;;;;;;5.87;5.30;;;;;;;17.83;74.42;95130.56;5095972;28;20445;-86
2023/09/28 00:27:18;;;;;;;6.67;5.10;;;;;;;17.82;74.34;95125.44;5095212;28;20456;-87
2023/09/28 00:29:46;;;;;;;6.70;5.23;;;;;;;17.79;74.89;95123.94;5059982;28;20562;-85
2023/09/28 00:32:12;;;;;;;5.37;4.87;;;;;;;17.70;74.88;95105.56;5095517;28;20906;-86
2023/09/28 00:34:39;;;;;;;8.90;5.83;;;;;;;17.76;75.19;95115.50;5095443;28;20449;-88
2023/09/28 00:37:05;;;;;;;11.80;5.50;;;;;;;17.70;75.57;95117.00;5095764;28;20207;-84
2023/09/28 00:39:32;;;;;;;7.20;5.30;;;;;;;17.67;75.66;95106.72;5094888;28;20810;-86
2023/09/28 00:41:57;;;;;;;6.47;5.43;;;;;;;17.67;75.49;95112.03;5095898;28;20250;-85
2023/09/28 00:44:25;;;;;;;5.50;4.97;;;;;;;17.65;75.42;95116.66;5096052;28;20927;-84
2023/09/28 00:46:51;;;;;;;5.37;4.93;;;;;;;17.58;75.65;95113.81;5095054;28;20212;-87
2023/09/28 00:49:18;;;;;;;9.23;6.27;;;;;;;17.56;75.31;95113.16;5095398;28;20448;-85
2023/09/28 00:51:47;;;;;;;13.57;5.90;;;;;;;17.53;75.89;95113.50;5094975;28;20198;-84
2023/09/28 00:54:14;;;;;;;6.63;5.90;;;;;;;17.51;76.12;95123.44;5095447;28;20439;-86
2023/09/28 00:56:41;;;;;;;7.20;5.63;;;;;;;17.50;76.10;95115.66;5094846;28;20447;-85
2023/09/28 00:59:08;;;;;;;11.03;5.93;;;;;;;17.46;76.24;95122.28;5094978;28;20856;-87
2023/09/28 01:01:36;;;;;;;7.73;5.67;;;;;;;17.45;76.07;95117.97;5095637;28;20429;-84
2023/09/28 01:04:05;;;;;;;8.97;5.57;;;;;;;17.43;76.55;95119.97;5095013;28;20480;-84
2023/09/28 01:06:32;;;;;;;10.30;5.77;;;;;;;17.44;76.11;95121.63;5095397;28;20444;-85
2023/09/28 01:08:59;;;;;;;10.17;5.80;;;;;;;17.40;76.67;95122.97;5095191;28;20459;-84
2023/09/28 01:11:24;;;;;;;7.23;5.17;;;;;;;17.40;76.37;95125.63;5075481;28;20440;-86
2023/09/28 01:13:52;;;;;;;8.17;5.43;;;;;;;17.37;76.78;95116.16;5095393;28;20535;-84
2023/09/28 01:16:19;;;;;;;11.40;5.60;;;;;;;17.34;77.08;95106.69;5094734;28;20258;-84
2023/09/28 01:18:47;;;;;;;5.87;5.37;;;;;;;17.37;77.01;95116.16;5094884;28;20530;-85
2023/09/28 01:21:13;;;;;;;10.00;5.70;;;;;;;17.37;77.33;95121.47;5094032;28;20440;-85
2023/09/28 01:23:42;;;;;;;6.17;5.20;;;;;;;17.32;77.81;95113.16;5094603;28;20480;-86
2023/09/28 01:26:07;;;;;;;12.40;5.93;;;;;;;17.33;77.86;95114.81;5094723;28;20443;-84
2023/09/28 01:28:34;;;;;;;11.70;6.13;;;;;;;17.31;77.18;95108.84;5093620;28;20435;-84
2023/09/28 01:31:01;;;;;;;10.37;5.63;;;;;;;17.30;77.04;95115.16;5094893;28;20233;-84
2023/09/28 01:33:29;;;;;;;10.93;6.37;;;;;;;17.24;77.67;95107.84;5059196;28;20945;-86
2023/09/28 01:35:55;;;;;;;6.03;5.37;;;;;;;17.17;77.49;95110.34;5094445;28;20444;-86
2023/09/28 01:38:32;;;;;;;10.10;6.03;;;;;;;17.08;77.98;95100.75;5094410;28;20501;-85
2023/09/28 01:40:59;;;;;;;7.13;6.30;;;;;;;17.09;78.51;95107.69;5094379;28;20226;-88
2023/09/28 01:43:26;;;;;;;7.90;5.00;;;;;;;17.07;78.37;95109.69;5093775;28;20532;-87
2023/09/28 01:45:52;;;;;;;8.30;5.63;;;;;;;17.06;78.98;95113.34;5093941;28;20446;-85
2023/09/28 01:48:21;;;;;;;7.60;5.70;;;;;;;17.03;78.91;95111.81;5093954;28;20848;-86
2023/09/28 01:50:48;;;;;;;9.63;6.00;;;;;;;17.02;79.19;95112.81;5094413;28;20201;-85
2023/09/28 01:53:14;;;;;;;6.13;5.03;;;;;;;17.01;79.33;95105.03;5093809;28;20431;-85
2023/09/28 01:55:40;;;;;;;10.00;5.63;;;;;;;17.02;79.50;95117.28;5094308;28;20525;-85
2023/09/28 01:58:09;;;;;;;10.47;6.00;;;;;;;17.01;79.68;95118.28;5093707;28;20440;-84
2023/09/28 02:00:34;;;;;;;11.50;6.63;;;;;;;16.99;79.21;95121.09;5074227;28;20198;-85
2023/09/28 02:03:06;;;;;;;8.03;5.30;;;;;;;16.98;79.19;95116.78;5092747;28;21017;-85
2023/09/28 02:05:36;;;;;;;17.20;5.50;;;;;;;17.01;79.42;95120.94;5062158;28;20606;-85
2023/09/28 02:08:05;;;;;;;6.57;5.70;;;;;;;16.97;79.39;95119.59;5058747;28;20451;-84
2023/09/28 02:10:34;;;;;;;7.57;6.17;;;;;;;17.01;79.16;95120.94;5093760;28;20445;-85
2023/09/28 02:13:01;;;;;;;6.93;5.50;;;;;;;17.01;79.25;95118.28;5058869;28;20946;-85
2023/09/28 02:15:28;;;;;;;5.70;5.20;;;;;;;16.95;79.71;95121.59;5093556;28;20447;-84
2023/09/28 02:17:55;;;;;;;6.57;5.80;;;;;;;16.93;79.99;95118.28;5093390;28;20460;-84
2023/09/28 02:20:22;;;;;;;5.97;5.30;;;;;;;16.91;79.85;95115.78;5093770;28;20440;-84
2023/09/28 02:22:52;;;;;;;8.03;5.47;;;;;;;16.89;80.21;95130.19;5093630;28;20859;-85
2023/09/28 02:25:19;;;;;;;8.07;5.50;;;;;;;16.82;80.19;95121.25;5094008;28;20448;-84
2023/09/28 02:27:50;;;;;;;8.07;6.03;;;;;;;16.69;80.68;95111.09;5093950;28;20752;-85
2023/09/28 02:30:19;;;;;;;8.17;5.97;;;;;;;16.71;80.46;95131.13;5092934;28;20492;-85
2023/09/28 02:32:48;;;;;;;8.30;5.87;;;;;;;16.70;80.28;95124.19;5093267;28;20447;-84
2023/09/28 02:35:16;;;;;;;8.60;5.40;;;;;;;16.68;80.50;95133.28;5093678;28;20772;-84
2023/09/28 02:37:45;;;;;;;6.43;5.83;;;;;;;16.68;80.86;95128.00;5093767;28;20459;-85
2023/09/28 02:40:11;;;;;;;13.43;5.63;;;;;;;16.70;80.63;95134.78;5094081;28;20446;-84
2023/09/28 02:42:38;;;;;;;6.10;5.40;;;;;;;16.68;80.40;95135.94;5093748;28;20961;-84
2023/09/28 02:45:11;;;;;;;10.70;5.97;;;;;;;16.68;80.88;95130.63;5093046;28;20440;-83
2023/09/28 02:47:37;;;;;;;11.80;5.77;;;;;;;16.68;80.82;95138.59;5092978;28;20435;-83
2023/09/28 02:50:09;;;;;;;8.80;5.80;;;;;;;16.64;81.30;95140.69;5093112;28;20474;-84
2023/09/28 02:52:39;;;;;;;10.40;5.93;;;;;;;16.59;81.07;95144.81;5093235;28;20843;-83
2023/09/28 02:55:07;;;;;;;7.37;5.53;;;;;;;16.55;81.11;95143.50;5093851;28;20435;-84
2023/09/28 02:57:34;;;;;;;10.00;5.90;;;;;;;16.46;81.50;95142.59;5093112;28;20445;-84
2023/09/28 03:00:11;;;;;;;7.33;5.50;;;;;;;16.45;81.65;95146.25;5093606;28;20730;-83
2023/09/28 03:02:37;;;;;;;6.90;5.67;;;;;;;16.39;81.76;95152.19;5093471;28;20458;-83
2023/09/28 03:05:07;;;;;;;8.10;5.57;;;;;;;16.41;82.11;95147.56;5092764;28;20929;-82
2023/09/28 03:07:35;;;;;;;5.73;5.13;;;;;;;16.39;81.57;95157.50;5092976;28;20240;-82
2023/09/28 03:10:03;;;;;;;9.80;6.77;;;;;;;16.40;81.28;95148.56;5093366;28;20543;-83
2023/09/28 03:12:30;;;;;;;12.37;6.63;;;;;;;16.41;81.95;95147.56;5074579;28;20451;-85
2023/09/28 03:14:56;;;;;;;10.40;6.30;;;;;;;16.40;81.94;95144.09;5094801;28;20456;-84
2023/09/28 03:17:22;;;;;;;7.00;6.00;;;;;;;16.41;82.18;95155.50;5096710;28;20448;-83
2023/09/28 03:19:48;;;;;;;8.90;5.80;;;;;;;16.38;82.58;95155.84;5096416;28;20718;-82
2023/09/28 03:22:16;;;;;;;12.77;6.67;;;;;;;16.34;82.27;95155.31;5096670;28;20514;-84
2023/09/28 03:24:42;;;;;;;7.77;5.87;;;;;;;16.32;82.11;95156.47;5096072;28;20566;-83
2023/09/28 03:27:09;;;;;;;9.87;5.20;;;;;;;16.32;81.99;95151.16;5096362;28;20462;-82
2023/09/28 03:29:37;;;;;;;9.30;5.40;;;;;;;16.28;81.98;95148.00;5096409;28;20240;-83
2023/09/28 03:32:04;;;;;;;6.70;5.10;;;;;;;16.24;81.51;95144.03;5099004;28;20450;-83
2023/09/28 03:34:30;;;;;;;19.60;5.90;;;;;;;16.23;82.02;95142.38;5096618;28;20446;-86
2023/09/28 03:36:57;;;;;;;5.57;4.93;;;;;;;16.21;81.77;95146.16;5077890;28;20930;-85
2023/09/28 03:39:25;;;;;;;6.33;5.77;;;;;;;16.27;82.33;95142.88;5096661;28;20201;-85
2023/09/28 03:41:52;;;;;;;5.67;5.17;;;;;;;16.28;81.87;95148.00;5097278;28;20461;-86
2023/09/28 03:44:19;;;;;;;12.17;6.17;;;;;;;16.28;81.92;95144.53;5096802;28;20486;-86
2023/09/28 03:46:45;;;;;;;6.03;5.43;;;;;;;16.28;82.26;95147.19;5096276;28;20436;-85
2023/09/28 03:49:12;;;;;;;9.67;5.77;;;;;;;16.24;82.44;95159.09;5095833;28;20440;-88
2023/09/28 03:51:39;;;;;;;7.20;4.90;;;;;;;16.21;82.80;95151.47;5095993;28;20960;-81
2023/09/28 03:54:07;;;;;;;7.40;5.43;;;;;;;16.15;82.54;95149.41;5095688;28;20458;-85
2023/09/28 03:56:35;;;;;;;8.60;5.10;;;;;;;16.14;82.42;95156.53;5060848;28;20451;-82
2023/09/28 03:59:02;;;;;;;16.17;5.93;;;;;;;16.18;81.70;95154.41;5095595;28;20469;-86
2023/09/28 04:01:29;;;;;;;5.47;4.97;;;;;;;16.18;81.65;95151.75;5078822;28;20965;-85
2023/09/28 04:03:56;;;;;;;12.17;5.60;;;;;;;16.19;81.28;95150.75;5075889;28;20488;-83
2023/09/28 04:06:23;;;;;;;6.13;5.63;;;;;;;16.23;81.03;95146.84;5075848;28;20452;-83
2023/09/28 04:08:50;;;;;;;15.60;7.70;;;;;;;16.22;81.03;95146.00;5075603;28;20455;-83
2023/09/28 04:11:17;;;;;;;11.57;5.77;;;;;;;16.21;81.17;95143.53;5083026;28;20521;-83
2023/09/28 04:13:45;;;;;;;10.00;6.13;;;;;;;16.21;81.27;95146.16;5095200;28;20447;-83
2023/09/28 04:16:12;;;;;;;8.40;6.20;;;;;;;16.21;81.60;95154.13;5059649;28;20944;-83
2023/09/28 04:18:38;;;;;;;14.23;7.60;;;;;;;16.19;81.58;95148.97;5059546;28;20766;-83
2023/09/28 04:21:05;;;;;;;9.60;5.43;;;;;;;16.17;81.47;95150.91;5096246;28;20469;-83
2023/09/28 04:23:32;;;;;;;11.50;6.30;;;;;;;16.16;81.25;95151.91;5094805;28;20486;-84
2023/09/28 04:25:59;;;;;;;7.00;4.70;;;;;;;16.22;80.46;95158.41;5094449;28;20465;-84
2023/09/28 04:28:26;;;;;;;10.70;4.97;;;;;;;16.26;80.01;95163.25;5094624;28;20445;-84
2023/09/28 04:30:54;;;;;;;9.40;5.17;;;;;;;16.28;80.20;95163.91;5095175;28;20493;-84
2023/09/28 04:33:21;;;;;;;14.53;7.13;;;;;;;16.30;79.91;95159.28;5095791;28;20457;-82
2023/09/28 04:35:47;;;;;;;6.97;6.17;;;;;;;16.32;79.94;95161.78;5094885;28;20438;-84
2023/09/28 04:38:14;;;;;;;8.50;6.10;;;;;;;16.37;80.20;95162.13;5094784;28;20980;-82
2023/09/28 04:40:41;;;;;;;13.27;5.30;;;;;;;16.38;80.52;95166.44;5076133;28;20957;-82
2023/09/28 04:43:08;;;;;;;13.80;5.70;;;;;;;16.42;80.15;95173.06;5094878;28;20458;-83
2023/09/28 04:45:35;;;;;;;10.93;5.03;;;;;;;16.48;81.15;95167.16;5094682;28;20564;-83
2023/09/28 04:48:04;;;;;;;6.23;5.40;;;;;;;16.48;80.74;95169.81;5093785;28;20434;-84
2023/09/28 04:50:31;;;;;;;6.67;5.50;;;;;;;16.47;80.51;95170.75;5093479;28;20447;-85
2023/09/28 04:52:58;;;;;;;7.60;6.10;;;;;;;16.46;80.43;95176.22;5094068;28;20438;-84
2023/09/28 04:55:25;;;;;;;14.37;7.00;;;;;;;16.53;80.60;95186.03;5093893;28;20802;-88
2023/09/28 04:57:53;;;;;;;7.57;6.00;;;;;;;16.59;82.41;95177.44;5093807;28;20963;-84
2023/09/28 05:00:20;;;;;;;7.63;6.07;;;;;;;16.71;83.31;95186.78;5094345;28;20454;-88
2023/09/28 05:02:47;;;;;;;17.67;6.37;;;;;;;16.82;85.21;95179.56;5094086;28;20432;-87
2023/09/28 05:05:15;;;;;;;9.10;6.17;;;;;;;16.87;83.67;95182.53;5091403;28;20479;-84
2023/09/28 05:07:42;;;;;;;10.77;8.10;;;;;;;16.95;81.88;95191.34;5084974;28;20446;-82
2023/09/28 05:10:09;;;;;;;15.30;9.37;;;;;;;17.00;81.87;95183.72;5057494;28;20478;-82
2023/09/28 05:12:36;;;;;;;24.10;6.10;;;;;;;16.98;79.64;95187.53;5093193;28;20522;-84
2023/09/28 05:15:04;;;;;;;9.33;6.53;;;;;;;17.01;79.82;95190.69;5092755;28;20799;-82
2023/09/28 05:17:31;;;;;;;6.70;6.00;;;;;;;17.06;79.20;95184.94;5093439;28;20521;-82
2023/09/28 05:19:58;;;;;;;13.03;5.50;;;;;;;17.10;79.39;95186.25;5079469;28;20432;-83
2023/09/28 05:22:27;;;;;;;15.00;5.90;;;;;;;17.13;78.86;95190.41;5073612;28;20428;-83
2023/09/28 05:24:55;;;;;;;9.27;6.13;;;;;;;17.16;79.08;95190.91;5092934;28;20482;-83
2023/09/28 05:27:22;;;;;;;13.53;6.10;;;;;;;17.22;79.86;95184.94;5057644;28;20443;-83
2023/09/28 05:29:50;;;;;;;12.83;7.07;;;;;;;17.25;79.48;95192.56;5057096;28;20456;-82
2023/09/28 05:32:16;;;;;;;19.53;5.83;;;;;;;17.26;79.47;95191.56;5092658;28;20432;-82
2023/09/28 05:34:43;;;;;;;14.37;6.33;;;;;;;17.30;79.69;95200.03;5092482;28;20438;-83
2023/09/28 05:37:10;;;;;;;9.93;6.17;;;;;;;17.26;79.53;95194.22;5091935;28;20815;-86
2023/09/28 05:39:40;;;;;;;14.13;5.50;;;;;;;17.31;79.36;95191.91;5057301;28;20437;-84
2023/09/28 05:42:07;;;;;;;5.47;4.90;;;;;;;17.33;79.43;95187.25;5093246;28;20537;-82
2023/09/28 05:44:34;;;;;;;13.57;6.07;;;;;;;17.35;78.99;95189.78;5093845;28;20469;-84
2023/09/28 05:47:01;;;;;;;15.00;5.33;;;;;;;17.40;78.73;95198.06;5057885;28;20497;-83
2023/09/28 05:49:29;;;;;;;13.40;5.30;;;;;;;17.48;78.61;95206.03;5093871;28;20779;-85
2023/09/28 05:51:56;;;;;;;10.60;5.87;;;;;;;17.51;78.01;95200.41;5079940;28;20456;-84
2023/09/28 05:54:23;;;;;;;10.33;7.33;;;;;;;17.55;77.96;95196.41;5085502;28;20456;-84
2023/09/28 05:56:51;;;;;;;11.23;6.33;;;;;;;17.59;77.71;95194.25;5073742;28;20424;-84
2023/09/28 05:59:18;;;;;;;6.40;5.33;;;;;;;17.65;77.95;95205.06;5073437;28;20449;-83
2023/09/28 06:01:45;;;;;;;18.13;5.43;;;;;;;17.70;78.65;95198.47;5073117;28;20444;-85
2023/09/28 06:04:12;;;;;;;8.37;5.50;;;;;;;17.79;78.57;95200.94;5072989;28;20544;-85
2023/09/28 06:06:41;;;;;;;9.77;6.60;;;;;;;17.86;77.91;95196.59;5073417;28;20453;-83
2023/09/28 06:09:09;;;;;;;18.60;8.53;;;;;;;17.92;77.47;95190.63;5036613;28;20533;-84
2023/09/28 06:11:36;;;;;;;13.53;7.57;;;;;;;17.98;77.38;95206.91;5072042;28;20452;-84
2023/09/28 06:14:04;;;;;;;15.03;8.30;;;;;;;18.01;78.08;95207.41;5072015;28;20927;-85
2023/09/28 06:16:31;;;;;;;17.77;7.00;;;;;;;18.12;77.27;95203.56;5072373;28;20437;-84
2023/09/28 06:18:58;;;;;;;8.67;5.13;;;;;;;18.19;76.85;95200.03;5073187;28;20778;-83
2023/09/28 06:21:25;;;;;;;17.17;5.77;;;;;;;18.26;77.46;95205.53;5036871;28;20434;-85
2023/09/28 06:23:52;;;;;;;9.73;5.83;;;;;;;18.35;76.96;95209.00;5072037;28;20452;-85
2023/09/28 06:26:18;;;;;;;10.23;4.97;;;;;;;18.41;76.59;95201.16;5071901;28;20437;-84
2023/09/28 06:28:46;;;;;;;8.17;4.80;;;;;;;18.48;75.37;95202.13;5072040;28;20469;-85
2023/09/28 06:31:15;;;;;;;10.83;5.23;;;;;;;18.60;75.00;95204.44;5072329;28;20510;-84
2023/09/28 06:33:42;;;;;;;16.00;7.00;;;;;;;18.75;75.69;95198.25;5072204;28;20501;-85
2023/09/28 06:36:09;;;;;;;12.70;6.47;;;;;;;18.94;73.83;95205.00;5071882;28;20446;-84
2023/09/28 06:38:36;;;;;;;7.60;5.27;;;;;;;19.04;72.88;95213.56;5071994;28;20447;-85
2023/09/28 06:41:03;;;;;;;10.60;4.50;;;;;;;19.16;72.26;95198.91;5071833;28;20453;-84
2023/09/28 06:43:30;;;;;;;11.73;5.10;;;;;;;19.25;72.76;95201.50;5072260;28;20504;-84
2023/09/28 06:45:58;;;;;;;14.27;6.00;;;;;;;19.36;72.01;95206.41;5071599;28;20522;-85
2023/09/28 06:48:27;;;;;;;8.10;6.10;;;;;;;19.47;72.20;95209.50;5071991;28;20524;-84
2023/09/28 06:50:56;;;;;;;8.63;5.87;;;;;;;19.57;70.71;95209.31;5074685;28;20449;-84
2023/09/28 06:53:24;;;;;;;10.40;5.80;;;;;;;19.65;71.26;95208.41;5075561;28;20498;-84
2023/09/28 06:55:51;;;;;;;18.27;7.97;;;;;;;19.74;70.59;95221.50;5075914;28;20482;-83
2023/09/28 06:58:17;;;;;;;17.97;6.30;;;;;;;19.75;69.17;95212.50;5075518;28;20939;-85
2023/09/28 07:00:45;;;;;;;15.23;6.10;;;;;;;19.73;67.98;95224.34;5075736;28;20812;-84
2023/09/28 07:03:12;;;;;;;10.90;5.10;;;;;;;19.78;67.82;95229.97;5075404;28;20444;-84
2023/09/28 07:05:40;;;;;;;13.80;6.03;;;;;;;19.74;65.78;95229.50;5075270;28;20490;-84
2023/09/28 07:08:07;;;;;;;23.60;6.83;;;;;;;19.68;66.56;95219.56;5075104;28;20445;-84
2023/09/28 07:10:35;;;;;;;17.13;5.77;;;;;;;19.67;65.63;95235.72;5075314;28;20446;-84
2023/09/28 07:13:04;;;;;;;12.80;5.50;;;;;;;19.62;66.02;95233.56;5075584;28;20540;-85
2023/09/28 07:15:31;;;;;;;14.60;6.20;;;;;;;19.71;66.44;95232.50;5057072;28;20529;-85
2023/09/28 07:18:02;;;;;;;13.13;6.63;;;;;;;19.59;64.45;95233.91;5075259;28;20844;-85
2023/09/28 07:20:30;;;;;;;14.50;6.40;;;;;;;19.78;64.63;95233.44;5075173;28;20444;-84
2023/09/28 07:22:58;;;;;;;10.33;5.70;;;;;;;20.00;64.91;95236.28;5075388;28;20451;-84
2023/09/28 07:25:26;;;;;;;14.10;6.97;;;;;;;20.21;64.15;95244.41;5074881;28;20483;-84
2023/09/28 07:27:53;;;;;;;13.70;5.97;;;;;;;20.43;64.40;95237.41;5075343;28;20448;-84
2023/09/28 07:30:20;;;;;;;15.40;5.43;;;;;;;20.81;62.20;95243.47;5074985;28;20505;-84
2023/09/28 07:32:48;;;;;;;10.40;6.67;;;;;;;21.06;60.31;95232.53;5074928;28;20450;-82
2023/09/28 07:35:14;;;;;;;16.47;5.50;;;;;;;21.29;58.75;95242.09;5074977;28;20456;-84
2023/09/28 07:37:42;;;;;;;11.97;5.83;;;;;;;21.34;57.94;95237.00;5075063;28;20508;-84
2023/09/28 07:40:13;;;;;;;15.43;4.37;;;;;;;21.43;58.71;95234.25;5075020;28;20474;-85
2023/09/28 07:42:40;;;;;;;8.30;4.80;;;;;;;21.58;58.59;95235.84;5056234;28;20434;-84
2023/09/28 07:45:08;;;;;;;7.73;5.20;;;;;;;21.67;58.55;95228.53;5074436;28;20483;-84
2023/09/28 07:47:35;;;;;;;5.10;4.20;;;;;;;21.75;56.52;95232.94;5074533;28;20454;-84
2023/09/28 07:50:01;;;;;;;6.60;4.03;;;;;;;21.80;57.83;95225.19;5075018;28;20435;-84
2023/09/28 07:52:28;;;;;;;4.33;3.90;;;;;;;21.77;56.69;95222.91;5074802;28;20458;-84
2023/09/28 07:54:56;;;;;;;12.27;4.47;;;;;;;21.80;56.65;95227.84;5074627;28;20447;-84
2023/09/28 07:57:24;;;;;;;6.63;4.63;;;;;;;21.61;56.35;95227.44;5074473;28;20508;-83
2023/09/28 07:59:54;;;;;;;13.50;5.87;;;;;;;21.59;57.00;95217.97;5074705;28;20451;-85
2023/09/28 08:02:22;;;;;;;7.43;4.40;;;;;;;21.77;58.32;95226.41;5074494;28;20439;-84
2023/09/28 08:04:48;;;;;;;8.20;4.47;;;;;;;21.81;57.53;95232.19;5039546;28;20533;-83
2023/09/28 08:07:15;;;;;;;13.43;5.13;;;;;;;21.84;57.60;95229.13;5074551;28;20471;-84
2023/09/28 08:09:43;;;;;;;10.23;4.60;;;;;;;21.86;58.71;95224.41;5074354;28;20811;-84
2023/09/28 08:12:10;;;;;;;8.70;4.20;;;;;;;21.94;57.81;95225.09;5039149;28;20469;-85
2023/09/28 08:14:38;;;;;;;11.57;4.70;;;;;;;22.07;57.33;95216.41;5074323;28;20829;-85
2023/09/28 08:17:05;;;;;;;10.73;4.60;;;;;;;22.18;57.60;95218.56;5074237;28;20497;-84
2023/09/28 08:19:32;;;;;;;7.00;5.60;;;;;;;22.14;56.01;95224.50;5074290;28;20842;-84
2023/09/28 08:21:59;;;;;;;15.60;6.20;;;;;;;22.09;56.30;95218.91;5074257;28;20440;-84
2023/09/28 08:24:26;;;;;;;8.67;5.03;;;;;;;22.14;57.13;95228.00;5074210;28;20455;-84
2023/09/28 08:26:52;;;;;;;10.40;4.97;;;;;;;22.15;57.17;95224.28;5074119;28;20533;-84
2023/09/28 08:29:19;;;;;;;5.20;4.20;;;;;;;22.20;57.16;95216.50;5073786;28;20476;-84
2023/09/28 08:31:47;;;;;;;9.13;5.23;;;;;;;22.20;56.74;95221.03;5074233;28;20442;-84
2023/09/28 08:34:14;;;;;;;6.10;3.93;;;;;;;22.30;56.07;95226.06;5073926;28;20452;-84
2023/09/28 08:36:41;;;;;;;6.07;4.80;;;;;;;22.37;55.89;95213.56;5073961;28;20442;-85
2023/09/28 08:39:08;;;;;;;10.97;4.17;;;;;;;22.43;56.28;95210.09;5074212;28;20449;-85
2023/09/28 08:41:43;;;;;;;7.47;4.80;;;;;;;22.50;55.83;95201.09;5073731;28;20442;-84
2023/09/28 08:44:11;;;;;;;9.20;4.27;;;;;;;22.50;55.64;95205.63;5073483;28;20866;-85
2023/09/28 08:46:39;;;;;;;5.33;4.40;;;;;;;;;;5073374;28;20515;-83
2023/09/28 08:49:08;;;;;;;10.47;4.73;;;;;;;22.37;54.95;95201.03;5073701;28;20458;-83
2023/09/28 08:51:36;;;;;;;10.43;5.10;;;;;;;22.51;55.78;95202.75;5073521;28;20455;-84
2023/09/28 08:54:05;;;;;;;15.10;10.73;;;;;;;22.58;55.01;95191.28;5037968;28;20888;-84
2023/09/28 08:56:34;;;;;;;12.57;5.70;;;;;;;22.65;55.61;95192.97;5073709;28;20457;-85
2023/09/28 08:59:02;;;;;;;10.53;6.17;;;;;;;22.77;56.01;95201.25;5073843;28;20443;-84
2023/09/28 09:01:30;;;;;;;14.53;4.80;;;;;;;22.86;55.34;95194.78;5073380;28;20525;-85
2023/09/28 09:03:58;;;;;;;6.57;4.70;;;;;;;23.10;55.69;95196.09;5073618;28;20531;-84
2023/09/28 09:06:29;;;;;;;10.63;4.30;;;;;;;23.34;53.82;95200.94;5073239;28;20522;-84
2023/09/28 09:09:01;;;;;;;7.80;5.43;;;;;;;23.51;53.16;95192.53;5073568;28;20452;-84
2023/09/28 09:11:29;;;;;;;6.27;4.20;;;;;;;23.62;52.90;95194.66;5073578;28;20527;-83
2023/09/28 09:13:56;;;;;;;11.90;3.93;;;;;;;23.61;52.62;95188.47;5053902;28;20444;-84
2023/09/28 09:16:23;;;;;;;11.13;3.83;;;;;;;23.63;52.13;95190.94;5073215;28;20447;-84
2023/09/28 09:18:51;;;;;;;10.50;4.37;;;;;;;23.74;52.54;95195.72;5073057;28;20851;-83
2023/09/28 09:21:18;;;;;;;7.80;4.20;;;;;;;23.82;51.68;95192.84;5037609;28;20497;-83
2023/09/28 09:24:03;;;;;;;6.57;3.60;;;;;;;23.91;52.16;95180.88;5072820;28;20540;-82
2023/09/28 09:26:38;;;;;;;6.30;4.40;;;;;;;24.12;52.14;95185.22;5072837;28;20579;-85
2023/09/28 09:29:05;;;;;;;11.27;3.90;;;;;;;24.22;51.66;95179.44;5072668;28;20509;-83
2023/09/28 09:31:33;;;;;;;5.17;4.37;;;;;;;24.17;51.45;95185.44;5072655;28;20441;-82
2023/09/28 09:34:03;;;;;;;6.03;4.33;;;;;;;24.28;51.75;95184.00;5072995;28;20459;-84
2023/09/28 09:36:31;;;;;;;13.80;4.97;;;;;;;24.14;51.52;95182.34;5073011;28;20452;-84
2023/09/28 09:39:00;;;;;;;7.83;4.03;;;;;;;24.21;51.41;95178.63;5038018;28;20535;-83
2023/09/28 09:41:28;;;;;;;6.47;4.27;;;;;;;24.21;51.00;95177.78;5072398;28;20444;-84
2023/09/28 09:43:55;;;;;;;10.50;4.53;;;;;;;24.21;51.25;95173.25;5072723;28;20953;-85
2023/09/28 09:46:21;;;;;;;13.53;4.53;;;;;;;24.32;50.91;95177.22;5072353;28;20491;-82
2023/09/28 09:48:49;;;;;;;7.20;4.03;;;;;;;24.19;51.08;95174.50;5053970;28;20448;-83
2023/09/28 09:51:17;;;;;;;7.40;5.17;;;;;;;24.09;52.04;95172.22;5072485;28;21210;-83
2023/09/28 09:53:46;;;;;;;4.00;3.70;;;;;;;24.15;51.20;95167.91;5072569;28;20441;-83
2023/09/28 09:56:16;;;;;;;5.77;4.47;;;;;;;24.14;51.82;95158.19;5072276;28;20436;-83
2023/09/28 09:58:47;;;;;;;7.33;4.73;;;;;;;24.22;51.25;95157.97;5072361;28;20831;-83
2023/09/28 10:01:16;;;;;;;11.70;4.57;;;;;;;24.19;51.85;95159.22;5072617;28;20452;-84
2023/09/28 10:03:47;;;;;;;7.70;4.83;;;;;;;24.17;52.08;95161.28;5072181;28;20943;-84
2023/09/28 10:06:17;;;;;;;8.70;4.70;;;;;;;24.19;51.52;95159.22;5072370;28;20995;-84
2023/09/28 10:08:45;;;;;;;5.80;3.77;;;;;;;23.94;52.89;95161.69;5072720;28;20432;-83
2023/09/28 10:11:14;;;;;;;10.10;4.30;;;;;;;23.93;52.38;95159.22;5072308;28;20458;-84
2023/09/28 10:13:41;;;;;;;10.70;4.87;;;;;;;23.87;53.37;95149.34;5072326;28;20456;-83
2023/09/28 10:16:11;;;;;;;6.43;4.50;;;;;;;23.82;52.14;95151.81;5072799;28;20448;-83
2023/09/28 10:18:40;;;;;;;7.87;4.60;;;;;;;23.90;52.36;95155.09;5072474;28;20445;-83
2023/09/28 10:21:08;;;;;;;6.67;4.60;;;;;;;24.00;52.09;95144.81;5072331;28;20486;-83
2023/09/28 10:23:35;;;;;;;10.83;4.60;;;;;;;23.97;52.15;95145.19;5038542;28;20432;-83
2023/09/28 10:26:07;;;;;;;7.07;5.53;;;;;;;23.89;53.06;95156.13;5077462;28;20479;-83
2023/09/28 10:28:35;;;;;;;9.63;5.10;;;;;;;23.72;55.04;95152.22;5076441;28;20981;-83
2023/09/28 10:31:09;;;;;;;8.33;4.63;;;;;;;23.53;54.60;95148.44;5076711;28;20442;-83
2023/09/28 10:33:36;;;;;;;8.60;5.00;;;;;;;23.47;55.61;95144.72;5076396;28;20477;-83
2023/09/28 10:36:13;;;;;;;7.40;4.43;;;;;;;23.36;56.89;95141.81;5076491;28;20434;-83
2023/09/28 10:38:40;;;;;;;10.73;4.73;;;;;;;23.29;57.17;95146.31;5075998;28;20443;-84
2023/09/28 10:41:07;;;;;;;7.03;4.37;;;;;;;23.29;57.85;95128.41;5076124;28;20435;-83
2023/09/28 10:43:39;;;;;;;8.67;4.83;;;;;;;23.37;56.54;95143.47;5075971;28;20437;-84
2023/09/28 10:46:08;;;;;;;7.30;4.53;;;;;;;23.41;57.07;95132.13;5076451;28;20514;-84
2023/09/28 10:48:42;;;;;;;4.83;4.20;;;;;;;23.44;56.06;95137.09;5076023;28;20443;-83
2023/09/28 10:51:11;;;;;;;10.73;4.90;;;;;;;23.53;57.31;95128.88;5076064;28;20447;-84
2023/09/28 10:53:38;;;;;;;6.53;4.63;;;;;;;23.68;56.80;95135.69;5075869;28;20599;-83
2023/09/28 10:56:07;;;;;;;4.43;4.03;;;;;;;23.82;55.52;95133.03;5075753;28;20537;-86
2023/09/28 10:58:36;;;;;;;12.03;4.73;;;;;;;23.83;55.35;95129.34;5075880;28;20993;-83
2023/09/28 11:01:06;;;;;;;7.60;4.67;;;;;;;23.87;56.67;95128.72;5075548;28;20442;-83
2023/09/28 11:03:34;;;;;;;8.53;4.20;;;;;;;23.86;55.54;95127.06;5075920;28;20501;-83
2023/09/28 11:06:02;;;;;;;7.00;3.77;;;;;;;23.85;54.80;95120.06;5075343;28;20487;-83
2023/09/28 11:08:30;;;;;;;12.87;5.20;;;;;;;23.91;55.44;95121.91;5040502;28;20447;-83
2023/09/28 11:10:58;;;;;;;6.63;5.13;;;;;;;23.94;54.92;95112.63;5075354;28;20479;-83
2023/09/28 11:13:25;;;;;;;10.30;5.47;;;;;;;24.03;55.15;95109.53;5075609;28;20530;-83
2023/09/28 11:15:54;;;;;;;8.47;5.20;;;;;;;24.12;54.26;95110.16;5075254;28;20443;-84
2023/09/28 11:18:21;;;;;;;6.53;4.50;;;;;;;24.22;53.65;95115.06;5075112;28;20942;-83
2023/09/28 11:20:48;;;;;;;17.63;4.70;;;;;;;24.33;53.89;95118.00;5074957;28;20812;-83
2023/09/28 11:23:15;;;;;;;18.03;4.87;;;;;;;24.45;52.50;95120.00;5074817;28;20454;-84
2023/09/28 11:25:43;;;;;;;7.87;5.10;;;;;;;24.50;52.32;95118.34;5039615;28;20510;-83
2023/09/28 11:28:11;;;;;;;10.07;4.90;;;;;;;24.50;52.25;95118.34;5075002;28;20439;-83
2023/09/28 11:30:38;;;;;;;9.93;5.13;;;;;;;24.45;51.81;95120.00;5075089;28;20842;-83
2023/09/28 11:33:08;;;;;;;12.40;5.57;;;;;;;24.37;50.11;95121.91;5074756;28;20922;-82